createdAt,value
2019-04-10T00:00:51.122Z,1.90
2019-04-10T00:03:28.153Z,1.90
2019-04-10T00:05:52.095Z,1.90
2019-04-10T00:08:21.909Z,1.80
2019-04-10T00:10:52.186Z,1.70
2019-04-10T00:13:22.846Z,1.70
2019-04-10T00:15:52.855Z,1.70
2019-04-10T00:18:22.467Z,1.70
2019-04-10T00:20:53.100Z,1.80
2019-04-10T00:23:22.753Z,1.80
2019-04-10T00:25:53.040Z,1.70
2019-04-10T00:28:23.448Z,1.70
2019-04-10T00:30:53.573Z,1.70
2019-04-10T00:33:23.022Z,1.70
2019-04-10T00:35:52.397Z,1.60
2019-04-10T00:38:21.851Z,1.60
2019-04-10T00:40:52.006Z,1.60
2019-04-10T00:43:22.478Z,1.50
2019-04-10T00:45:52.130Z,1.40
2019-04-10T00:48:21.748Z,1.30
2019-04-10T00:50:51.265Z,1.20
2019-04-10T00:53:21.173Z,1.30
2019-04-10T00:55:50.659Z,1.30
2019-04-10T00:58:20.403Z,1.30
2019-04-10T01:00:50.428Z,1.20
2019-04-10T01:03:38.190Z,1.20
2019-04-10T01:06:08.106Z,1.10
2019-04-10T01:08:37.616Z,1.20
2019-04-10T01:11:07.262Z,1.10
2019-04-10T01:13:36.964Z,1.00
2019-04-10T01:16:07.135Z,1.00
2019-04-10T01:18:37.417Z,1.00
2019-04-10T01:21:06.985Z,0.90
2019-04-10T01:23:37.920Z,0.80
2019-04-10T01:26:07.449Z,0.80
2019-04-10T01:28:36.825Z,0.80
2019-04-10T01:31:06.779Z,0.70
2019-04-10T01:33:36.825Z,0.70
2019-04-10T01:36:06.938Z,0.60
2019-04-10T01:38:36.468Z,0.60
2019-04-10T01:41:05.888Z,0.50
2019-04-10T01:43:35.266Z,0.50
2019-04-10T01:46:04.581Z,0.50
2019-04-10T01:48:34.502Z,0.40
2019-04-10T01:51:04.079Z,0.40
2019-04-10T01:53:33.621Z,0.30
2019-04-10T01:56:03.774Z,0.30
2019-04-10T01:58:33.198Z,0.30
2019-04-10T02:01:08.652Z,0.20
2019-04-10T02:03:38.316Z,0.10
2019-04-10T02:06:07.969Z,0.10
2019-04-10T02:08:38.189Z,0.10
2019-04-10T02:11:08.814Z,0.00
2019-04-10T02:13:39.323Z,0.00
2019-04-10T02:16:08.863Z,0.00
2019-04-10T02:18:38.442Z,0.00
2019-04-10T02:21:07.961Z,-0.10
2019-04-10T02:23:37.326Z,-0.20
2019-04-10T02:26:07.461Z,-0.20
2019-04-10T02:28:37.470Z,-0.20
2019-04-10T02:31:07.204Z,-0.20
2019-04-10T02:33:36.727Z,-0.20
2019-04-10T02:36:06.162Z,-0.30
2019-04-10T02:38:50.806Z,-0.30
2019-04-10T02:41:08.396Z,-0.40
2019-04-10T02:43:38.061Z,-0.40
2019-04-10T02:46:08.403Z,-0.40
2019-04-10T02:48:39.273Z,-0.40
2019-04-10T02:51:09.686Z,-0.50
2019-04-10T02:53:39.600Z,-0.50
2019-04-10T02:56:09.108Z,-0.50
2019-04-10T02:58:38.701Z,-0.50
2019-04-10T03:01:09.326Z,-0.50
2019-04-10T03:03:40.202Z,-0.60
2019-04-10T03:06:11.361Z,-0.60
2019-04-10T03:09:00.688Z,-0.70
2019-04-10T03:11:12.955Z,-0.70
2019-04-10T03:13:45.032Z,-0.70
2019-04-10T03:16:15.826Z,-0.70
2019-04-10T03:18:45.436Z,-0.70
2019-04-10T03:21:15.356Z,-0.70
2019-04-10T03:23:45.458Z,-0.80
2019-04-10T03:26:15.322Z,-0.80
2019-04-10T03:28:44.882Z,-0.80
2019-04-10T03:31:15.727Z,-0.70
2019-04-10T03:34:04.256Z,-0.70
2019-04-10T03:36:38.194Z,-0.80
2019-04-10T03:39:10.451Z,-0.70
2019-04-10T03:41:40.314Z,-0.80
2019-04-10T03:44:10.312Z,-0.80
2019-04-10T03:46:40.246Z,-0.80
2019-04-10T03:49:09.943Z,-0.80
2019-04-10T03:51:39.359Z,-0.80
2019-04-10T03:54:09.044Z,-0.80
2019-04-10T03:56:38.675Z,-0.80
2019-04-10T03:59:08.401Z,-0.90
2019-04-10T04:01:38.938Z,-0.90
2019-04-10T04:04:09.132Z,-0.90
2019-04-10T04:06:39.753Z,-0.90
2019-04-10T04:09:11.982Z,-0.90
2019-04-10T04:11:40.681Z,-0.90
2019-04-10T04:14:10.332Z,-0.90
2019-04-10T04:16:40.259Z,-0.90
2019-04-10T04:19:10.133Z,-0.90
2019-04-10T04:21:39.742Z,-0.80
2019-04-10T04:24:09.395Z,-0.90
2019-04-10T04:26:39.339Z,-0.80
2019-04-10T04:29:09.661Z,-0.80
2019-04-10T04:31:40.031Z,-0.80
2019-04-10T04:34:10.017Z,-0.70
2019-04-10T04:36:40.550Z,-0.70
2019-04-10T04:39:21.111Z,-0.70
2019-04-10T04:41:42.235Z,-0.70
2019-04-10T04:44:12.396Z,-0.70
2019-04-10T04:46:42.946Z,-0.60
2019-04-10T04:49:12.309Z,-0.60
2019-04-10T04:51:41.774Z,-0.60
2019-04-10T04:54:11.136Z,-0.40
2019-04-10T04:56:40.563Z,-0.40
2019-04-10T04:59:10.229Z,-0.30
2019-04-10T05:01:40.414Z,-0.40
2019-04-10T05:04:10.935Z,-0.40
2019-04-10T05:06:41.644Z,-0.30
2019-04-10T05:09:11.310Z,-0.30
2019-04-10T05:11:40.774Z,-0.20
2019-04-10T05:14:11.060Z,-0.20
2019-04-10T05:16:41.570Z,-0.10
2019-04-10T05:19:12.152Z,0.00
2019-04-10T05:21:41.578Z,0.00
2019-04-10T05:24:11.627Z,0.10
2019-04-10T05:26:41.337Z,0.20
2019-04-10T05:29:11.155Z,0.20
2019-04-10T05:31:40.678Z,0.30
2019-04-10T05:34:10.033Z,0.40
2019-04-10T05:36:40.012Z,0.50
2019-04-10T05:39:10.490Z,0.60
2019-04-10T05:41:40.038Z,0.70
2019-04-10T05:44:09.570Z,0.80
2019-04-10T05:46:39.150Z,0.80
2019-04-10T05:49:08.762Z,1.00
2019-04-10T05:51:38.336Z,1.00
2019-04-10T05:54:08.842Z,1.10
2019-04-10T05:56:38.477Z,1.10
2019-04-10T05:59:09.811Z,1.20
2019-04-10T06:01:41.250Z,1.30
2019-04-10T06:04:11.264Z,1.30
2019-04-10T06:06:40.929Z,1.50
2019-04-10T06:09:10.548Z,1.60
2019-04-10T06:11:42.879Z,1.70
2019-04-10T06:14:11.336Z,1.80
2019-04-10T06:16:40.883Z,2.00
2019-04-10T06:19:12.615Z,2.10
2019-04-10T06:21:42.190Z,2.10
2019-04-10T06:24:11.991Z,2.20
2019-04-10T06:26:41.610Z,2.30
2019-04-10T06:29:11.223Z,2.40
2019-04-10T06:31:40.962Z,3.10
2019-04-10T06:34:11.715Z,2.90
2019-04-10T06:36:41.754Z,2.80
2019-04-10T06:39:11.166Z,2.80
2019-04-10T06:41:41.125Z,2.90
2019-04-10T06:44:10.611Z,2.90
2019-04-10T06:46:40.702Z,3.10
2019-04-10T06:49:12.186Z,3.20
2019-04-10T06:51:41.799Z,3.20
2019-04-10T06:54:12.667Z,3.40
2019-04-10T06:56:43.046Z,3.30
2019-04-10T06:59:12.544Z,3.20
2019-04-10T07:01:49.531Z,3.30
2019-04-10T07:04:13.499Z,3.40
2019-04-10T07:06:53.900Z,3.40
2019-04-10T07:09:21.372Z,3.50
2019-04-10T07:11:56.318Z,3.60
2019-04-10T07:14:24.986Z,3.50
2019-04-10T07:16:54.956Z,3.60
2019-04-10T07:19:24.398Z,3.60
2019-04-10T07:21:53.869Z,3.70
2019-04-10T07:24:23.377Z,3.80
2019-04-10T07:26:53.279Z,3.80
2019-04-10T07:29:26.653Z,3.90
2019-04-10T07:31:54.969Z,3.90
2019-04-10T07:34:26.964Z,4.00
2019-04-10T07:36:56.163Z,4.00
2019-04-10T07:39:29.224Z,4.00
2019-04-10T07:41:57.831Z,4.20
2019-04-10T07:44:27.318Z,4.10
2019-04-10T07:46:59.054Z,4.20
2019-04-10T07:49:31.046Z,4.30
2019-04-10T07:51:58.904Z,4.40
2019-04-10T07:54:28.860Z,4.30
2019-04-10T07:56:58.345Z,4.60
2019-04-10T07:59:27.702Z,4.50
2019-04-10T08:01:58.050Z,4.40
2019-04-10T08:04:27.562Z,4.60
2019-04-10T08:06:57.214Z,4.60
2019-04-10T08:09:26.928Z,4.50
2019-04-10T08:11:56.717Z,4.80
2019-04-10T08:14:27.261Z,4.90
2019-04-10T08:16:57.380Z,4.90
2019-04-10T08:19:29.100Z,5.10
2019-04-10T08:21:58.316Z,5.10
2019-04-10T08:24:28.039Z,5.30
2019-04-10T08:26:57.581Z,5.30
2019-04-10T08:29:27.163Z,5.30
2019-04-10T08:31:56.526Z,5.30
2019-04-10T08:34:26.110Z,5.30
2019-04-10T08:36:56.785Z,5.50
2019-04-10T08:39:38.750Z,5.50
2019-04-10T08:42:00.083Z,5.30
2019-04-10T08:44:29.845Z,5.20
2019-04-10T08:47:00.177Z,5.40
2019-04-10T08:49:30.697Z,5.60
2019-04-10T08:52:00.200Z,5.80
2019-04-10T08:54:29.517Z,5.80
2019-04-10T08:56:58.930Z,5.80
2019-04-10T08:59:28.304Z,5.80
2019-04-10T09:01:57.865Z,6.10
2019-04-10T09:04:28.557Z,6.00
2019-04-10T09:07:00.963Z,5.50
2019-04-10T09:09:29.922Z,5.50
2019-04-10T09:11:59.846Z,5.50
2019-04-10T09:14:29.675Z,5.50
2019-04-10T09:16:59.219Z,5.50
2019-04-10T09:19:29.874Z,5.40
2019-04-10T09:21:59.694Z,5.40
2019-04-10T09:24:30.070Z,5.50
2019-04-10T09:27:00.865Z,5.50
2019-04-10T09:29:30.333Z,6.00
2019-04-10T09:32:00.001Z,6.10
2019-04-10T09:34:32.594Z,5.80
2019-04-10T09:37:03.863Z,6.10
2019-04-10T09:39:33.758Z,6.20
2019-04-10T09:42:03.505Z,6.00
2019-04-10T09:44:33.200Z,6.00
2019-04-10T09:47:02.827Z,6.20
2019-04-10T09:49:39.015Z,6.30
2019-04-10T09:52:04.726Z,6.30
2019-04-10T09:54:34.856Z,6.60
2019-04-10T09:57:05.015Z,6.80
2019-04-10T09:59:36.985Z,6.90
2019-04-10T10:02:05.548Z,7.00
2019-04-10T10:04:34.930Z,7.20
2019-04-10T10:07:04.321Z,7.00
2019-04-10T10:09:35.280Z,6.80
2019-04-10T10:12:07.374Z,7.20
2019-04-10T10:14:37.954Z,7.00
2019-04-10T10:17:08.518Z,7.00
2019-04-10T10:19:39.168Z,6.70
2019-04-10T10:22:09.370Z,6.60
2019-04-10T10:24:38.921Z,6.70
2019-04-10T10:27:09.372Z,7.00
2019-04-10T10:29:39.026Z,7.30
2019-04-10T10:32:08.706Z,7.20
2019-04-10T10:34:38.739Z,7.30
2019-04-10T10:37:08.633Z,7.20
2019-04-10T10:39:38.990Z,7.40
2019-04-10T10:42:09.507Z,7.80
2019-04-10T10:44:40.371Z,7.60
2019-04-10T10:47:10.042Z,8.10
2019-04-10T10:49:40.610Z,8.10
2019-04-10T10:52:11.056Z,8.20
2019-04-10T10:54:41.103Z,8.20
2019-04-10T10:57:11.011Z,7.80
2019-04-10T10:59:41.792Z,8.00
2019-04-10T11:02:11.398Z,8.30
2019-04-10T11:04:40.888Z,7.90
2019-04-10T11:07:10.844Z,8.00
2019-04-10T11:09:40.572Z,8.20
2019-04-10T11:12:12.043Z,8.10
2019-04-10T11:14:41.674Z,8.30
2019-04-10T11:17:11.854Z,8.20
2019-04-10T11:19:41.433Z,8.10
2019-04-10T11:22:12.639Z,8.10
2019-04-10T11:24:43.399Z,8.50
2019-04-10T11:27:14.310Z,8.90
2019-04-10T11:29:45.397Z,8.90
2019-04-10T11:32:15.502Z,8.90
2019-04-10T11:34:45.005Z,8.90
2019-04-10T11:39:47.553Z,9.10
2019-04-10T11:42:18.313Z,9.40
2019-04-10T11:44:49.336Z,9.50
2019-04-10T11:47:20.044Z,9.50
2019-04-10T11:49:50.687Z,9.20
2019-04-10T11:52:32.047Z,9.40
2019-04-10T11:54:54.018Z,9.20
2019-04-10T11:57:22.901Z,9.20
2019-04-10T11:59:54.430Z,9.60
2019-04-10T12:02:25.011Z,9.60
2019-04-10T12:04:59.147Z,9.40
2019-04-10T12:12:30.775Z,10.30
2019-04-10T12:15:00.337Z,10.20
2019-04-10T12:17:29.793Z,10.50
2019-04-10T12:19:59.350Z,10.50
2019-04-10T12:22:29.620Z,11.00
2019-04-10T12:24:59.228Z,11.10
2019-04-10T12:27:29.402Z,11.20
2019-04-10T12:29:59.249Z,11.10
2019-04-10T12:32:30.481Z,11.10
2019-04-10T12:35:00.320Z,11.00
2019-04-10T12:37:29.814Z,10.70
2019-04-10T12:39:59.621Z,11.00
2019-04-10T12:42:29.005Z,10.80
2019-04-10T12:44:58.477Z,11.10
2019-04-10T12:47:28.042Z,11.30
2019-04-10T12:49:58.294Z,11.70
2019-04-10T12:52:27.730Z,11.80
2019-04-10T12:54:57.199Z,12.20
2019-04-10T12:57:26.699Z,11.50
2019-04-10T13:00:01.201Z,11.10
2019-04-10T13:02:30.275Z,12.40
2019-04-10T13:05:00.852Z,11.80
2019-04-10T13:07:31.622Z,12.40
2019-04-10T13:10:02.450Z,12.90
2019-04-10T13:12:32.103Z,13.50
2019-04-10T13:15:01.601Z,12.80
2019-04-10T13:17:31.020Z,13.60
2019-04-10T13:20:00.465Z,13.70
2019-04-10T13:22:31.797Z,13.60
2019-04-10T13:25:01.837Z,13.60
2019-04-10T13:27:31.616Z,12.90
2019-04-10T13:30:01.112Z,13.20
2019-04-10T13:32:31.832Z,13.30
2019-04-10T13:35:01.803Z,13.30
2019-04-10T13:37:31.669Z,14.10
2019-04-10T13:40:01.727Z,13.20
2019-04-10T13:42:31.652Z,12.00
2019-04-10T13:45:01.114Z,10.70
2019-04-10T13:47:30.551Z,10.30
2019-04-10T13:50:00.075Z,10.30
2019-04-10T13:52:29.615Z,11.40
2019-04-10T13:54:58.979Z,11.30
2019-04-10T13:57:28.684Z,11.90
2019-04-10T13:59:58.118Z,12.70
2019-04-10T14:02:34.161Z,13.40
2019-04-10T14:05:05.250Z,13.80
2019-04-10T14:07:36.025Z,14.60
2019-04-10T14:10:07.204Z,14.00
2019-04-10T14:12:37.155Z,14.20
2019-04-10T14:15:07.761Z,14.00
2019-04-10T14:17:37.657Z,14.00
2019-04-10T14:20:07.888Z,13.60
2019-04-10T14:22:40.138Z,13.10
2019-04-10T14:25:21.097Z,12.10
2019-04-10T14:27:50.682Z,11.90
2019-04-10T14:30:29.318Z,11.80
2019-04-10T14:32:58.773Z,13.10
2019-04-10T14:35:29.416Z,13.30
2019-04-10T14:37:59.067Z,13.50
2019-04-10T14:40:29.122Z,13.10
2019-04-10T14:43:00.426Z,14.30
2019-04-10T14:45:29.778Z,14.20
2019-04-10T14:48:00.133Z,14.20
2019-04-10T14:50:30.215Z,14.10
2019-04-10T14:52:59.770Z,13.70
2019-04-10T14:55:29.297Z,13.20
2019-04-10T14:57:59.191Z,13.10
2019-04-10T15:00:49.388Z,12.80
2019-04-10T15:03:20.281Z,13.90
2019-04-10T15:05:55.319Z,13.20
2019-04-10T15:08:24.362Z,13.00
2019-04-10T15:10:53.912Z,13.40
2019-04-10T15:13:24.450Z,12.50
2019-04-10T15:15:54.813Z,13.10
2019-04-10T15:18:24.257Z,13.10
2019-04-10T15:20:54.334Z,12.80
2019-04-10T15:23:24.047Z,12.20
2019-04-10T15:25:53.794Z,12.90
2019-04-10T15:28:26.120Z,11.90
2019-04-10T15:30:55.637Z,11.90
2019-04-10T15:33:26.728Z,11.40
2019-04-10T15:35:58.420Z,11.60
2019-04-10T15:38:28.550Z,11.20
2019-04-10T15:40:58.711Z,11.50
2019-04-10T15:43:29.341Z,11.50
2019-04-10T15:46:00.122Z,11.50
2019-04-10T15:48:29.725Z,11.80
2019-04-10T15:51:00.120Z,11.50
2019-04-10T15:53:29.598Z,11.20
2019-04-10T15:55:59.045Z,10.80
2019-04-10T15:58:28.528Z,11.50
2019-04-10T16:00:59.383Z,11.50
2019-04-10T16:03:28.942Z,11.40
2019-04-10T16:05:58.386Z,10.70
2019-04-10T16:08:28.317Z,10.20
2019-04-10T16:11:17.392Z,10.60
2019-04-10T16:13:48.931Z,10.40
2019-04-10T16:16:44.379Z,9.80
2019-04-10T16:19:38.798Z,9.90
2019-04-10T16:22:26.214Z,10.00
2019-04-10T16:24:57.601Z,9.00
2019-04-10T16:27:27.256Z,9.20
2019-04-10T16:29:56.741Z,9.10
2019-04-10T16:32:26.696Z,8.90
2019-04-10T16:34:56.830Z,8.20
2019-04-10T16:37:26.432Z,8.20
2019-04-10T16:40:00.680Z,8.20
2019-04-10T16:42:27.165Z,8.40
2019-04-10T16:44:57.617Z,8.40
2019-04-10T16:47:32.786Z,8.20
2019-04-10T16:50:03.434Z,7.90
2019-04-10T16:52:33.331Z,7.50
2019-04-10T16:55:03.189Z,6.80
2019-04-10T16:57:32.646Z,6.80
2019-04-10T17:00:02.944Z,6.80
2019-04-10T17:02:32.523Z,6.80
2019-04-10T17:05:02.003Z,6.70
2019-04-10T17:07:33.481Z,6.40
2019-04-10T17:10:12.588Z,6.40
2019-04-10T17:12:34.139Z,6.50
2019-04-10T17:15:03.974Z,6.30
2019-04-10T17:17:34.593Z,6.20
2019-04-10T17:20:05.728Z,6.20
2019-04-10T17:22:41.809Z,5.90
2019-04-10T17:25:07.342Z,5.60
2019-04-10T17:27:37.482Z,5.50
2019-04-10T17:30:07.783Z,5.40
2019-04-10T17:32:38.511Z,5.40
2019-04-10T17:35:09.530Z,5.30
2019-04-10T17:37:40.141Z,5.20
2019-04-10T17:40:25.090Z,5.20
2019-04-10T17:42:44.308Z,5.10
2019-04-10T17:45:14.633Z,5.10
2019-04-10T17:47:45.160Z,5.00
2019-04-10T17:50:18.525Z,5.00
2019-04-10T17:52:49.110Z,5.00
2019-04-10T17:55:19.693Z,4.90
2019-04-10T17:57:49.401Z,4.90
2019-04-10T18:00:43.506Z,4.90
2019-04-10T18:03:16.255Z,4.90
2019-04-10T18:05:44.721Z,4.80
2019-04-10T18:08:14.643Z,4.80
2019-04-10T18:10:49.432Z,4.80
2019-04-10T18:13:15.580Z,4.80
2019-04-10T18:15:46.229Z,4.80
2019-04-10T18:18:15.903Z,4.70
2019-04-10T18:20:46.357Z,4.70
2019-04-10T18:23:19.603Z,4.70
2019-04-10T18:25:49.898Z,4.60
2019-04-10T18:28:19.430Z,4.60
2019-04-10T18:30:48.847Z,4.50
2019-04-10T18:33:18.334Z,4.50
2019-04-10T18:35:49.016Z,4.50
2019-04-10T18:38:19.541Z,4.60
2019-04-10T18:40:58.031Z,4.60
2019-04-10T18:43:20.323Z,4.60
2019-04-10T18:46:03.343Z,4.60
2019-04-10T18:48:21.010Z,4.60
2019-04-10T18:50:51.593Z,4.50
2019-04-10T18:53:21.294Z,4.50
2019-04-10T18:55:50.951Z,4.40
2019-04-10T18:58:24.914Z,4.40
2019-04-10T19:01:16.315Z,4.40
2019-04-10T19:04:04.448Z,4.30
2019-04-10T19:06:53.047Z,4.30
2019-04-10T19:09:28.210Z,4.30
2019-04-10T19:11:58.652Z,4.20
2019-04-10T19:14:28.204Z,4.20
2019-04-10T19:16:58.277Z,4.20
2019-04-10T19:19:28.218Z,4.20
2019-04-10T19:21:57.826Z,4.10
2019-04-10T19:24:30.123Z,4.10
2019-04-10T19:27:00.024Z,4.10
2019-04-10T19:29:29.705Z,4.10
2019-04-10T19:32:02.146Z,4.10
2019-04-10T19:34:33.676Z,4.00
2019-04-10T19:37:04.044Z,4.00
2019-04-10T19:39:34.113Z,4.00
2019-04-10T19:42:05.110Z,4.00
2019-04-10T19:44:35.152Z,3.90
2019-04-10T19:47:06.108Z,3.90
2019-04-10T19:49:37.057Z,3.90
2019-04-10T19:52:08.641Z,3.90
2019-04-10T19:54:38.757Z,3.80
2019-04-10T19:57:08.953Z,3.70
2019-04-10T19:59:39.794Z,3.70
2019-04-10T20:02:10.564Z,3.60
2019-04-10T20:04:40.917Z,3.70
2019-04-10T20:07:11.175Z,3.60
2019-04-10T20:09:40.988Z,3.50
2019-04-10T20:12:10.732Z,3.40
2019-04-10T20:14:40.892Z,3.30
2019-04-10T20:17:11.532Z,3.20
2019-04-10T20:19:40.977Z,3.00
2019-04-10T20:22:10.527Z,3.00
2019-04-10T20:24:40.940Z,2.90
2019-04-10T20:27:10.310Z,2.80
2019-04-10T20:29:39.917Z,2.80
2019-04-10T20:32:10.964Z,2.70
2019-04-10T20:34:40.451Z,2.70
2019-04-10T20:37:11.463Z,2.60
2019-04-10T20:39:41.275Z,2.50
2019-04-10T20:42:10.919Z,2.40
2019-04-10T20:44:40.869Z,2.30
2019-04-10T20:47:10.859Z,2.30
2019-04-10T20:49:40.634Z,2.30
2019-04-10T20:52:10.435Z,2.30
2019-04-10T20:54:41.366Z,2.20
2019-04-10T20:57:11.137Z,2.20
2019-04-10T20:59:40.531Z,2.20
2019-04-10T21:02:09.967Z,2.10
2019-04-10T21:04:43.264Z,2.00
2019-04-10T21:07:10.671Z,2.00
2019-04-10T21:09:40.066Z,1.90
2019-04-10T21:12:12.825Z,1.90
2019-04-10T21:14:40.645Z,1.90
2019-04-10T21:17:09.987Z,1.80
2019-04-10T21:19:39.425Z,1.90
2019-04-10T21:22:08.797Z,1.90
2019-04-10T21:24:38.149Z,1.90
2019-04-10T21:27:07.455Z,1.80
2019-04-10T21:29:52.612Z,1.80
2019-04-10T21:32:56.872Z,1.80
2019-04-10T21:35:31.006Z,1.80
2019-04-10T21:38:00.337Z,1.80
2019-04-10T21:40:30.621Z,1.80
2019-04-10T21:43:00.080Z,1.80
2019-04-10T21:45:29.852Z,1.70
2019-04-10T21:47:59.973Z,1.70
2019-04-10T21:50:29.472Z,1.70
2019-04-10T21:52:59.664Z,1.70
2019-04-10T21:55:29.240Z,1.70
2019-04-10T21:57:59.572Z,1.70
2019-04-10T22:00:54.841Z,1.70
2019-04-10T22:03:25.224Z,1.70
2019-04-10T22:06:13.774Z,1.60
2019-04-10T22:08:48.482Z,1.60
2019-04-10T22:11:19.030Z,1.60
2019-04-10T22:13:48.711Z,1.60
2019-04-10T22:16:19.769Z,1.40
2019-04-10T22:18:49.811Z,1.40
2019-04-10T22:21:20.661Z,1.40
2019-04-10T22:23:51.047Z,1.40
2019-04-10T22:26:20.549Z,1.40
2019-04-10T22:28:49.930Z,1.30
2019-04-10T22:31:20.225Z,1.30
2019-04-10T22:33:49.889Z,1.20
2019-04-10T22:36:19.227Z,1.30
2019-04-10T22:38:49.670Z,1.30
2019-04-10T22:41:27.137Z,1.30
2019-04-10T22:43:50.512Z,1.30
2019-04-10T22:46:19.984Z,1.30
2019-04-10T22:48:50.036Z,1.30
2019-04-10T22:51:19.862Z,1.30
2019-04-10T22:53:50.044Z,1.20
2019-04-10T22:56:19.450Z,1.30
2019-04-10T22:58:49.052Z,1.30
2019-04-10T23:01:18.586Z,1.30
2019-04-10T23:03:48.015Z,1.30
2019-04-10T23:06:17.450Z,1.40
2019-04-10T23:08:47.505Z,1.40
2019-04-10T23:11:18.622Z,1.40
2019-04-10T23:13:48.238Z,1.40
2019-04-10T23:16:18.045Z,1.40
2019-04-10T23:18:47.772Z,1.40
2019-04-10T23:21:18.547Z,1.40
2019-04-10T23:23:48.918Z,1.40
2019-04-10T23:26:19.197Z,1.40
2019-04-10T23:28:49.517Z,1.40
2019-04-10T23:31:19.138Z,1.40
2019-04-10T23:33:48.555Z,1.40
2019-04-10T23:36:18.175Z,1.40
2019-04-10T23:38:48.044Z,1.30
2019-04-10T23:41:17.798Z,1.30
2019-04-10T23:43:48.156Z,1.30
2019-04-10T23:46:18.072Z,1.30
2019-04-10T23:48:48.848Z,1.20
2019-04-10T23:51:18.985Z,1.30
2019-04-10T23:53:48.947Z,1.20
2019-04-10T23:56:19.731Z,1.30
2019-04-10T23:58:49.265Z,1.30
